sensor_id;sensor_type;location;lat;lon;timestamp;pressure;altitude;pressure_sealevel;temperature;humidity
71126;BME280;58785;55.566;38.058;2023-02-17T00:00:08;101137.44;;;-3.49;65.59
71126;BME280;58785;55.566;38.058;2023-02-17T00:02:35;101136.69;;;-3.55;65.82
71126;BME280;58785;55.566;38.058;2023-02-17T00:05:02;101142.75;;;-3.55;65.51
71126;BME280;58785;55.566;38.058;2023-02-17T00:07:33;101139.22;;;-3.51;65.81
71126;BME280;58785;55.566;38.058;2023-02-17T00:09:59;101130.38;;;-3.45;65.41
71126;BME280;58785;55.566;38.058;2023-02-17T00:12:25;101136.13;;;-3.29;65.55
71126;BME280;58785;55.566;38.058;2023-02-17T00:14:51;101137.13;;;-3.35;64.86
71126;BME280;58785;55.566;38.058;2023-02-17T00:17:16;101149.13;;;-3.28;65.13
71126;BME280;58785;55.566;38.058;2023-02-17T00:19:42;101132.56;;;-3.25;64.76
71126;BME280;58785;55.566;38.058;2023-02-17T00:22:07;101133.28;;;-3.19;64.48
71126;BME280;58785;55.566;38.058;2023-02-17T00:24:36;101126.34;;;-3.21;65.22
71126;BME280;58785;55.566;38.058;2023-02-17T00:27:03;101120.31;;;-3.23;65.23
71126;BME280;58785;55.566;38.058;2023-02-17T00:29:29;101131.53;;;-3.18;64.97
71126;BME280;58785;55.566;38.058;2023-02-17T00:31:55;101134.09;;;-3.16;65.60
71126;BME280;58785;55.566;38.058;2023-02-17T00:34:20;101130.63;;;-3.17;65.29
71126;BME280;58785;55.566;38.058;2023-02-17T00:36:46;101134.94;;;-3.16;64.90
71126;BME280;58785;55.566;38.058;2023-02-17T00:39:13;101126.22;;;-3.15;65.31
71126;BME280;58785;55.566;38.058;2023-02-17T00:41:39;101130.53;;;-3.14;64.93
71126;BME280;58785;55.566;38.058;2023-02-17T00:44:05;101133.16;;;-3.14;65.36
71126;BME280;58785;55.566;38.058;2023-02-17T00:46:30;101131.34;;;-3.10;65.17
71126;BME280;58785;55.566;38.058;2023-02-17T00:48:56;101128.69;;;-3.09;65.13
71126;BME280;58785;55.566;38.058;2023-02-17T00:51:23;101128.56;;;-3.04;65.57
71126;BME280;58785;55.566;38.058;2023-02-17T00:53:49;101128.50;;;-3.01;65.06
71126;BME280;58785;55.566;38.058;2023-02-17T00:56:15;101129.34;;;-2.99;64.93
71126;BME280;58785;55.566;38.058;2023-02-17T00:58:41;101130.13;;;-2.96;64.85
71126;BME280;58785;55.566;38.058;2023-02-17T01:01:08;101094.00;;;-3.12;64.83
71126;BME280;58785;55.566;38.058;2023-02-17T01:03:34;101132.00;;;-3.02;65.36
71126;BME280;58785;55.566;38.058;2023-02-17T01:06:05;101126.06;;;-3.07;65.22
71126;BME280;58785;55.566;38.058;2023-02-17T01:08:31;101127.00;;;-3.11;65.66
71126;BME280;58785;55.566;38.058;2023-02-17T01:10:57;101132.41;;;-3.19;65.63
71126;BME280;58785;55.566;38.058;2023-02-17T01:13:23;101124.72;;;-3.25;66.22
71126;BME280;58785;55.566;38.058;2023-02-17T01:15:50;101112.78;;;-3.35;65.50
71126;BME280;58785;55.566;38.058;2023-02-17T01:18:18;101124.16;;;-3.38;65.77
71126;BME280;58785;55.566;38.058;2023-02-17T01:20:44;101132.91;;;-3.42;65.91
71126;BME280;58785;55.566;38.058;2023-02-17T01:23:10;101125.44;;;-3.57;66.62
71126;BME280;58785;55.566;38.058;2023-02-17T01:25:38;101116.00;;;-3.63;66.41
71126;BME280;58785;55.566;38.058;2023-02-17T01:28:04;101128.88;;;-3.55;66.41
71126;BME280;58785;55.566;38.058;2023-02-17T01:30:29;101108.16;;;-3.61;65.96
71126;BME280;58785;55.566;38.058;2023-02-17T01:32:55;101121.03;;;-3.54;65.76
71126;BME280;58785;55.566;38.058;2023-02-17T01:35:20;101112.41;;;-3.57;66.48
71126;BME280;58785;55.566;38.058;2023-02-17T01:37:46;101109.91;;;-3.62;66.26
71126;BME280;58785;55.566;38.058;2023-02-17T01:40:13;101110.75;;;-3.61;66.77
71126;BME280;58785;55.566;38.058;2023-02-17T01:42:38;101111.72;;;-3.65;66.65
71126;BME280;58785;55.566;38.058;2023-02-17T01:48:06;101110.59;;;-3.54;66.31
71126;BME280;58785;55.566;38.058;2023-02-17T01:50:40;101108.69;;;-3.45;65.90
71126;BME280;58785;55.566;38.058;2023-02-17T01:53:09;101119.06;;;-3.44;66.03
71126;BME280;58785;55.566;38.058;2023-02-17T01:55:38;101101.91;;;-3.54;66.24
71126;BME280;58785;55.566;38.058;2023-02-17T01:58:06;101124.28;;;-3.44;66.02
71126;BME280;58785;55.566;38.058;2023-02-17T02:00:34;101126.06;;;-3.46;66.69
71126;BME280;58785;55.566;38.058;2023-02-17T02:03:01;101111.41;;;-3.52;66.39
71126;BME280;58785;55.566;38.058;2023-02-17T02:05:28;101111.41;;;-3.52;66.33
71126;BME280;58785;55.566;38.058;2023-02-17T02:07:55;101118.28;;;-3.48;66.18
71126;BME280;58785;55.566;38.058;2023-02-17T02:10:21;101107.00;;;-3.48;66.59
71126;BME280;58785;55.566;38.058;2023-02-17T02:12:47;101108.56;;;-3.41;66.46
71126;BME280;58785;55.566;38.058;2023-02-17T02:15:18;101136.06;;;-3.26;65.64
71126;BME280;58785;55.566;38.058;2023-02-17T02:18:32;101123.06;;;-3.28;66.68
71126;BME280;58785;55.566;38.058;2023-02-17T02:35:21;101127.50;;;-3.33;66.44
71126;BME280;58785;55.566;38.058;2023-02-17T02:38:01;101115.28;;;-3.29;66.52
71126;BME280;58785;55.566;38.058;2023-02-17T02:40:33;101122.81;;;-3.17;66.38
71126;BME280;58785;55.566;38.058;2023-02-17T02:43:01;101112.28;;;-3.14;66.17
71126;BME280;58785;55.566;38.058;2023-02-17T02:45:27;101118.06;;;-3.01;66.34
71126;BME280;58785;55.566;38.058;2023-02-17T02:47:55;101118.91;;;-2.99;65.57
71126;BME280;58785;55.566;38.058;2023-02-17T03:04:01;101116.97;;;-3.28;66.87
71126;BME280;58785;55.566;38.058;2023-02-17T03:06:36;101117.31;;;-3.43;67.11
71126;BME280;58785;55.566;38.058;2023-02-17T03:09:10;101121.59;;;-3.41;66.89
71126;BME280;58785;55.566;38.058;2023-02-17T03:11:38;101101.88;;;-3.53;67.21
71126;BME280;58785;55.566;38.058;2023-02-17T03:14:08;101112.13;;;-3.45;67.19
71126;BME280;58785;55.566;38.058;2023-02-17T03:16:35;101117.84;;;-3.28;66.85
71126;BME280;58785;55.566;38.058;2023-02-17T03:19:02;101094.94;;;-3.15;67.29
71126;BME280;58785;55.566;38.058;2023-02-17T03:24:26;101114.84;;;-3.12;66.55
71126;BME280;58785;55.566;38.058;2023-02-17T03:26:52;101132.50;;;-3.24;66.51
71126;BME280;58785;55.566;38.058;2023-02-17T03:29:17;101137.88;;;-3.30;67.09
71126;BME280;58785;55.566;38.058;2023-02-17T03:31:43;101137.06;;;-3.33;67.00
71126;BME280;58785;55.566;38.058;2023-02-17T03:34:08;101133.78;;;-3.41;67.07
71126;BME280;58785;55.566;38.058;2023-02-17T03:36:34;101127.66;;;-3.39;66.83
71126;BME280;58785;55.566;38.058;2023-02-17T03:39:00;101128.31;;;-3.29;67.14
71126;BME280;58785;55.566;38.058;2023-02-17T03:41:25;101139.50;;;-3.26;67.21
71126;BME280;58785;55.566;38.058;2023-02-17T03:43:51;101130.91;;;-3.29;67.07
71126;BME280;58785;55.566;38.058;2023-02-17T03:46:17;101123.09;;;-3.31;66.88
71126;BME280;58785;55.566;38.058;2023-02-17T03:48:42;101124.59;;;-3.19;66.79
71126;BME280;58785;55.566;38.058;2023-02-17T03:51:16;101128.91;;;-3.18;67.25
71126;BME280;58785;55.566;38.058;2023-02-17T03:53:43;101125.41;;;-3.17;66.60
71126;BME280;58785;55.566;38.058;2023-02-17T03:56:10;101130.38;;;-3.06;66.27
71126;BME280;58785;55.566;38.058;2023-02-17T03:58:36;101132.03;;;-3.04;66.89
71126;BME280;58785;55.566;38.058;2023-02-17T04:01:02;101132.81;;;-2.99;66.28
71126;BME280;58785;55.566;38.058;2023-02-17T04:03:27;101130.94;;;-2.94;66.25
71126;BME280;58785;55.566;38.058;2023-02-17T04:05:53;101129.13;;;-2.90;66.34
71126;BME280;58785;55.566;38.058;2023-02-17T04:08:20;101134.97;;;-2.82;66.43
71126;BME280;58785;55.566;38.058;2023-02-17T04:10:51;101118.56;;;-2.85;65.91
71126;BME280;58785;55.566;38.058;2023-02-17T04:13:17;101132.28;;;-2.77;66.40
71126;BME280;58785;55.566;38.058;2023-02-17T04:15:42;101140.91;;;-2.75;66.49
71126;BME280;58785;55.566;38.058;2023-02-17T04:18:08;101135.75;;;-2.77;66.61
71126;BME280;58785;55.566;38.058;2023-02-17T04:20:33;101132.38;;;-2.80;66.39
71126;BME280;58785;55.566;38.058;2023-02-17T04:22:59;101131.53;;;-2.82;66.32
71126;BME280;58785;55.566;38.058;2023-02-17T04:25:24;101136.78;;;-2.84;66.32
71126;BME280;58785;55.566;38.058;2023-02-17T04:27:50;101118.88;;;-2.98;66.31
71126;BME280;58785;55.566;38.058;2023-02-17T04:30:16;101136.88;;;-2.87;66.92
71126;BME280;58785;55.566;38.058;2023-02-17T04:32:41;101129.81;;;-2.83;66.53
71126;BME280;58785;55.566;38.058;2023-02-17T04:35:07;101125.63;;;-2.89;66.50
71126;BME280;58785;55.566;38.058;2023-02-17T04:37:33;101128.91;;;-2.82;66.54
71126;BME280;58785;55.566;38.058;2023-02-17T04:39:58;101136.47;;;-2.72;66.78
71126;BME280;58785;55.566;38.058;2023-02-17T04:42:24;101133.91;;;-2.73;66.06
71126;BME280;58785;55.566;38.058;2023-02-17T04:44:50;101139.94;;;-2.71;66.28
71126;BME280;58785;55.566;38.058;2023-02-17T04:47:16;101137.19;;;-2.65;66.79
71126;BME280;58785;55.566;38.058;2023-02-17T04:49:41;101138.84;;;-2.63;66.05
71126;BME280;58785;55.566;38.058;2023-02-17T04:52:07;101130.22;;;-2.65;66.36
71126;BME280;58785;55.566;38.058;2023-02-17T04:54:32;101129.31;;;-2.64;66.16
71126;BME280;58785;55.566;38.058;2023-02-17T04:56:58;101116.34;;;-2.67;66.48
71126;BME280;58785;55.566;38.058;2023-02-17T04:59:24;101132.59;;;-2.55;66.22
71126;BME280;58785;55.566;38.058;2023-02-17T05:01:49;101130.84;;;-2.55;66.55
71126;BME280;58785;55.566;38.058;2023-02-17T05:04:15;101129.25;;;-2.62;66.12
71126;BME280;58785;55.566;38.058;2023-02-17T05:06:41;101135.19;;;-2.55;66.21
71126;BME280;58785;55.566;38.058;2023-02-17T05:09:07;101119.66;;;-2.60;66.78
71126;BME280;58785;55.566;38.058;2023-02-17T05:11:32;101136.00;;;-2.53;66.49
71126;BME280;58785;55.566;38.058;2023-02-17T05:13:58;101135.06;;;-2.49;66.35
71126;BME280;58785;55.566;38.058;2023-02-17T05:16:23;101139.34;;;-2.47;66.18
71126;BME280;58785;55.566;38.058;2023-02-17T05:18:49;101135.91;;;-2.49;66.40
71126;BME280;58785;55.566;38.058;2023-02-17T05:21:15;101124.59;;;-2.49;65.97
71126;BME280;58785;55.566;38.058;2023-02-17T05:23:40;101130.72;;;-2.50;66.07
71126;BME280;58785;55.566;38.058;2023-02-17T05:26:07;101144.38;;;-2.41;65.92
71126;BME280;58785;55.566;38.058;2023-02-17T05:28:34;101137.28;;;-2.36;65.97
71126;BME280;58785;55.566;38.058;2023-02-17T05:31:00;101137.16;;;-2.31;66.02
71126;BME280;58785;55.566;38.058;2023-02-17T05:33:26;101125.00;;;-2.32;65.75
71126;BME280;58785;55.566;38.058;2023-02-17T05:35:51;101143.09;;;-2.24;65.95
71126;BME280;58785;55.566;38.058;2023-02-17T05:38:17;101129.25;;;-2.28;66.33
71126;BME280;58785;55.566;38.058;2023-02-17T05:40:42;101142.13;;;-2.20;66.18
71126;BME280;58785;55.566;38.058;2023-02-17T05:43:08;101139.31;;;-2.14;65.97
71126;BME280;58785;55.566;38.058;2023-02-17T05:45:34;101148.81;;;-2.12;66.00
71126;BME280;58785;55.566;38.058;2023-02-17T05:48:00;101142.69;;;-2.11;65.80
71126;BME280;58785;55.566;38.058;2023-02-17T05:50:26;101133.25;;;-2.15;66.30
71126;BME280;58785;55.566;38.058;2023-02-17T05:52:51;101136.63;;;-2.11;65.90
71126;BME280;58785;55.566;38.058;2023-02-17T05:55:17;101146.88;;;-2.04;65.63
71126;BME280;58785;55.566;38.058;2023-02-17T05:57:43;101142.44;;;-2.00;65.64
71126;BME280;58785;55.566;38.058;2023-02-17T06:00:09;101145.00;;;-1.98;65.73
71126;BME280;58785;55.566;38.058;2023-02-17T06:02:35;101150.00;;;-1.91;65.53
71126;BME280;58785;55.566;38.058;2023-02-17T06:05:00;101146.34;;;-1.85;65.28
71126;BME280;58785;55.566;38.058;2023-02-17T06:07:29;101152.19;;;-1.76;65.37
71126;BME280;58785;55.566;38.058;2023-02-17T06:09:55;101138.16;;;-1.73;65.08
71126;BME280;58785;55.566;38.058;2023-02-17T06:12:21;101152.50;;;-1.57;65.31
71126;BME280;58785;55.566;38.058;2023-02-17T06:14:46;101158.19;;;-1.42;64.96
71126;BME280;58785;55.566;38.058;2023-02-17T06:17:12;101153.41;;;-1.28;64.29
71126;BME280;58785;55.566;38.058;2023-02-17T06:19:38;101143.50;;;-1.19;64.08
71126;BME280;58785;55.566;38.058;2023-02-17T06:22:04;101144.88;;;-1.07;64.10
71126;BME280;58785;55.566;38.058;2023-02-17T06:24:30;101155.69;;;-0.90;63.89
71126;BME280;58785;55.566;38.058;2023-02-17T06:26:55;101161.47;;;-0.80;63.51
71126;BME280;58785;55.566;38.058;2023-02-17T06:29:22;101148.03;;;-0.69;63.44
71126;BME280;58785;55.566;38.058;2023-02-17T06:31:48;101161.34;;;-0.50;63.01
71126;BME280;58785;55.566;38.058;2023-02-17T06:34:13;101145.22;;;-0.38;62.82
71126;BME280;58785;55.566;38.058;2023-02-17T06:36:39;101150.56;;;-0.41;62.98
71126;BME280;58785;55.566;38.058;2023-02-17T06:39:05;101133.50;;;-0.53;63.13
71126;BME280;58785;55.566;38.058;2023-02-17T06:41:31;101141.66;;;-0.62;63.39
71126;BME280;58785;55.566;38.058;2023-02-17T06:43:56;101145.50;;;-0.72;63.44
71126;BME280;58785;55.566;38.058;2023-02-17T06:46:22;101135.19;;;-0.77;63.67
71126;BME280;58785;55.566;38.058;2023-02-17T06:48:47;101146.63;;;-0.79;64.04
71126;BME280;58785;55.566;38.058;2023-02-17T06:51:13;101140.47;;;-0.78;63.65
71126;BME280;58785;55.566;38.058;2023-02-17T06:53:38;101143.66;;;-0.70;63.46
71126;BME280;58785;55.566;38.058;2023-02-17T06:56:04;101146.03;;;-0.63;63.45
71126;BME280;58785;55.566;38.058;2023-02-17T06:58:30;101142.31;;;-0.55;63.12
71126;BME280;58785;55.566;38.058;2023-02-17T07:00:57;101145.75;;;-0.53;63.01
71126;BME280;58785;55.566;38.058;2023-02-17T07:03:23;101134.41;;;-0.54;62.51
71126;BME280;58785;55.566;38.058;2023-02-17T07:05:48;101131.41;;;-0.43;62.89
71126;BME280;58785;55.566;38.058;2023-02-17T07:08:14;101143.28;;;-0.33;62.63
71126;BME280;58785;55.566;38.058;2023-02-17T07:10:40;101134.38;;;-0.27;62.42
71126;BME280;58785;55.566;38.058;2023-02-17T07:13:06;101125.72;;;-0.30;62.47
71126;BME280;58785;55.566;38.058;2023-02-17T07:15:31;101134.44;;;-0.29;62.39
71126;BME280;58785;55.566;38.058;2023-02-17T07:17:58;101136.94;;;-0.26;62.55
71126;BME280;58785;55.566;38.058;2023-02-17T07:20:25;101135.00;;;-0.21;62.05
71126;BME280;58785;55.566;38.058;2023-02-17T07:22:50;101124.44;;;-0.18;62.31
71126;BME280;58785;55.566;38.058;2023-02-17T07:25:16;101134.28;;;-0.01;61.67
71126;BME280;58785;55.566;38.058;2023-02-17T07:27:42;101135.00;;;0.04;61.46
71126;BME280;58785;55.566;38.058;2023-02-17T07:30:08;101132.97;;;0.12;61.43
71126;BME280;58785;55.566;38.058;2023-02-17T07:32:33;101112.03;;;0.11;61.55
71126;BME280;58785;55.566;38.058;2023-02-17T07:35:00;101124.63;;;0.24;61.37
71126;BME280;58785;55.566;38.058;2023-02-17T07:37:25;101131.38;;;0.32;61.32
71126;BME280;58785;55.566;38.058;2023-02-17T07:39:51;101119.84;;;0.36;61.00
71126;BME280;58785;55.566;38.058;2023-02-17T07:42:17;101117.22;;;0.36;61.11
71126;BME280;58785;55.566;38.058;2023-02-17T07:44:42;101123.88;;;0.44;60.80
71126;BME280;58785;55.566;38.058;2023-02-17T07:47:08;101114.13;;;0.48;60.83
71126;BME280;58785;55.566;38.058;2023-02-17T07:49:33;101121.97;;;0.71;60.35
71126;BME280;58785;55.566;38.058;2023-02-17T07:51:59;101117.09;;;0.84;60.23
71126;BME280;58785;55.566;38.058;2023-02-17T07:54:25;101114.59;;;0.81;60.05
71126;BME280;58785;55.566;38.058;2023-02-17T07:56:50;101113.78;;;0.79;60.56
71126;BME280;58785;55.566;38.058;2023-02-17T07:59:16;101105.91;;;0.79;60.11
71126;BME280;58785;55.566;38.058;2023-02-17T08:01:41;101106.59;;;0.84;59.97
71126;BME280;58785;55.566;38.058;2023-02-17T08:04:07;101116.72;;;0.93;60.12
71126;BME280;58785;55.566;38.058;2023-02-17T08:06:33;101114.66;;;1.01;59.86
71126;BME280;58785;55.566;38.058;2023-02-17T08:08:58;101106.78;;;1.01;59.86
71126;BME280;58785;55.566;38.058;2023-02-17T08:11:42;101099.75;;;1.02;59.96
71126;BME280;58785;55.566;38.058;2023-02-17T08:14:29;101097.06;;;1.03;59.90
71126;BME280;58785;55.566;38.058;2023-02-17T08:16:55;101104.88;;;1.05;59.68
71126;BME280;58785;55.566;38.058;2023-02-17T08:19:21;101112.59;;;1.08;59.88
71126;BME280;58785;55.566;38.058;2023-02-17T08:21:47;101100.03;;;0.94;60.06
71126;BME280;58785;55.566;38.058;2023-02-17T08:24:14;101102.47;;;0.99;60.08
71126;BME280;58785;55.566;38.058;2023-02-17T08:26:40;101116.09;;;1.08;59.92
71126;BME280;58785;55.566;38.058;2023-02-17T08:29:06;101106.13;;;1.17;59.86
71126;BME280;58785;55.566;38.058;2023-02-17T08:31:34;101113.03;;;1.19;59.49
71126;BME280;58785;55.566;38.058;2023-02-17T08:34:02;101109.44;;;1.22;59.64
71126;BME280;58785;55.566;38.058;2023-02-17T08:36:29;101115.25;;;1.28;59.51
71126;BME280;58785;55.566;38.058;2023-02-17T08:38:55;101106.59;;;1.26;59.58
71126;BME280;58785;55.566;38.058;2023-02-17T08:41:32;101100.69;;;1.21;59.33
71126;BME280;58785;55.566;38.058;2023-02-17T08:43:59;101104.69;;;1.30;59.17
71126;BME280;58785;55.566;38.058;2023-02-17T08:46:27;101120.91;;;1.39;59.47
71126;BME280;58785;55.566;38.058;2023-02-17T08:48:53;101118.19;;;1.42;59.11
71126;BME280;58785;55.566;38.058;2023-02-17T08:51:22;101102.97;;;1.51;58.86
71126;BME280;58785;55.566;38.058;2023-02-17T08:53:52;101102.50;;;1.61;58.67
71126;BME280;58785;55.566;38.058;2023-02-17T08:56:19;101113.09;;;1.79;58.43
71126;BME280;58785;55.566;38.058;2023-02-17T08:58:45;101112.19;;;1.80;58.31
71126;BME280;58785;55.566;38.058;2023-02-17T09:01:11;101104.91;;;1.86;58.53
71126;BME280;58785;55.566;38.058;2023-02-17T09:03:37;101107.19;;;1.94;58.46
71126;BME280;58785;55.566;38.058;2023-02-17T09:06:03;101097.38;;;1.97;58.04
71126;BME280;58785;55.566;38.058;2023-02-17T09:08:29;101106.41;;;1.92;57.82
71126;BME280;58785;55.566;38.058;2023-02-17T09:10:55;101094.91;;;1.94;58.20
71126;BME280;58785;55.566;38.058;2023-02-17T09:13:21;101084.88;;;2.03;57.87
71126;BME280;58785;55.566;38.058;2023-02-17T09:15:47;101098.59;;;2.09;58.13
71126;BME280;58785;55.566;38.058;2023-02-17T09:18:14;101093.41;;;2.08;57.74
71126;BME280;58785;55.566;38.058;2023-02-17T09:20:40;101103.00;;;2.09;57.83
71126;BME280;58785;55.566;38.058;2023-02-17T09:23:06;101089.94;;;2.07;57.38
71126;BME280;58785;55.566;38.058;2023-02-17T09:25:32;101096.41;;;2.19;57.26
71126;BME280;58785;55.566;38.058;2023-02-17T09:27:58;101100.69;;;2.21;57.46
71126;BME280;58785;55.566;38.058;2023-02-17T09:30:24;101089.50;;;2.16;57.67
71126;BME280;58785;55.566;38.058;2023-02-17T09:32:50;101098.69;;;2.26;57.09
71126;BME280;58785;55.566;38.058;2023-02-17T09:35:17;101078.84;;;2.19;57.49
71126;BME280;58785;55.566;38.058;2023-02-17T09:37:43;101091.66;;;2.27;56.93
71126;BME280;58785;55.566;38.058;2023-02-17T09:43:01;101078.16;;;2.35;56.98
71126;BME280;58785;55.566;38.058;2023-02-17T09:45:32;101082.72;;;2.31;56.85
71126;BME280;58785;55.566;38.058;2023-02-17T09:48:02;101076.88;;;2.24;57.30
71126;BME280;58785;55.566;38.058;2023-02-17T09:53:36;101069.22;;;1.99;57.19
71126;BME280;58785;55.566;38.058;2023-02-17T09:56:07;101069.38;;;1.96;57.34
71126;BME280;58785;55.566;38.058;2023-02-17T09:58:43;101061.75;;;1.90;57.30
71126;BME280;58785;55.566;38.058;2023-02-17T10:01:32;101065.97;;;1.94;56.58
71126;BME280;58785;55.566;38.058;2023-02-17T10:04:09;101062.47;;;1.94;57.43
71126;BME280;58785;55.566;38.058;2023-02-17T10:06:46;101065.88;;;1.96;56.88
71126;BME280;58785;55.566;38.058;2023-02-17T10:09:47;101061.34;;;1.99;56.53
71126;BME280;58785;55.566;38.058;2023-02-17T10:12:20;101061.78;;;2.09;56.81
71126;BME280;58785;55.566;38.058;2023-02-17T10:14:55;101056.94;;;2.19;56.62
71126;BME280;58785;55.566;38.058;2023-02-17T10:17:36;101064.28;;;2.31;56.75
71126;BME280;58785;55.566;38.058;2023-02-17T10:20:39;101064.28;;;2.31;56.18
71126;BME280;58785;55.566;38.058;2023-02-17T10:23:06;101059.38;;;2.23;56.50
71126;BME280;58785;55.566;38.058;2023-02-17T10:34:04;101059.03;;;2.31;55.55
71126;BME280;58785;55.566;38.058;2023-02-17T10:41:59;101043.31;;;2.11;56.29
71126;BME280;58785;55.566;38.058;2023-02-17T10:44:26;101040.38;;;2.17;56.12
71126;BME280;58785;55.566;38.058;2023-02-17T10:46:52;101043.25;;;2.31;55.91
71126;BME280;58785;55.566;38.058;2023-02-17T10:49:26;101036.63;;;2.41;55.75
71126;BME280;58785;55.566;38.058;2023-02-17T10:51:53;101037.16;;;2.48;55.65
71126;BME280;58785;55.566;38.058;2023-02-17T10:54:41;101038.78;;;2.50;55.79
71126;BME280;58785;55.566;38.058;2023-02-17T10:57:11;101036.31;;;2.47;55.68
71126;BME280;58785;55.566;38.058;2023-02-17T10:59:42;101037.94;;;2.50;55.43
71126;BME280;58785;55.566;38.058;2023-02-17T11:02:32;101043.16;;;2.51;55.94
71126;BME280;58785;55.566;38.058;2023-02-17T11:04:58;101021.69;;;2.42;55.70
71126;BME280;58785;55.566;38.058;2023-02-17T11:07:33;101030.19;;;2.47;55.79
71126;BME280;58785;55.566;38.058;2023-02-17T11:10:03;101023.72;;;2.35;55.96
71126;BME280;58785;55.566;38.058;2023-02-17T11:12:38;101028.63;;;2.43;55.44
71126;BME280;58785;55.566;38.058;2023-02-17T11:15:14;101023.16;;;2.47;55.75
71126;BME280;58785;55.566;38.058;2023-02-17T11:17:42;101015.47;;;2.43;55.83
71126;BME280;58785;55.566;38.058;2023-02-17T11:20:28;101026.13;;;2.40;56.06
71126;BME280;58785;55.566;38.058;2023-02-17T11:23:20;101018.47;;;2.35;55.60
71126;BME280;58785;55.566;38.058;2023-02-17T11:26:15;101015.91;;;2.34;55.66
71126;BME280;58785;55.566;38.058;2023-02-17T11:28:41;101010.28;;;2.41;55.89
71126;BME280;58785;55.566;38.058;2023-02-17T11:31:22;101008.72;;;2.37;55.37
71126;BME280;58785;55.566;38.058;2023-02-17T11:33:47;101001.41;;;2.25;55.96
71126;BME280;58785;55.566;38.058;2023-02-17T11:36:23;101010.38;;;2.21;55.26
71126;BME280;58785;55.566;38.058;2023-02-17T11:38:50;100998.72;;;2.08;55.79
71126;BME280;58785;55.566;38.058;2023-02-17T11:41:15;100994.69;;;2.00;55.93
71126;BME280;58785;55.566;38.058;2023-02-17T11:43:55;101009.53;;;2.01;55.80
71126;BME280;58785;55.566;38.058;2023-02-17T11:46:58;101009.31;;;2.06;55.99
71126;BME280;58785;55.566;38.058;2023-02-17T11:50:00;101008.81;;;1.98;55.62
71126;BME280;58785;55.566;38.058;2023-02-17T11:52:48;100985.63;;;1.87;55.48
71126;BME280;58785;55.566;38.058;2023-02-17T11:55:34;101001.25;;;1.90;55.85
71126;BME280;58785;55.566;38.058;2023-02-17T12:03:57;100996.94;;;1.89;55.51
71126;BME280;58785;55.566;38.058;2023-02-17T12:07:05;100987.84;;;1.78;55.63
71126;BME280;58785;55.566;38.058;2023-02-17T12:25:36;100974.59;;;1.41;56.55
71126;BME280;58785;55.566;38.058;2023-02-17T12:28:34;100969.66;;;1.34;56.46
71126;BME280;58785;55.566;38.058;2023-02-17T12:31:15;100973.00;;;1.37;56.69
71126;BME280;58785;55.566;38.058;2023-02-17T12:36:17;100967.63;;;1.40;56.44
71126;BME280;58785;55.566;38.058;2023-02-17T12:39:17;100975.28;;;1.45;56.49
71126;BME280;58785;55.566;38.058;2023-02-17T12:42:12;100976.81;;;1.51;56.66
71126;BME280;58785;55.566;38.058;2023-02-17T12:44:43;100978.00;;;1.43;56.84
71126;BME280;58785;55.566;38.058;2023-02-17T12:47:24;100975.63;;;1.37;56.96
71126;BME280;58785;55.566;38.058;2023-02-17T12:50:05;100967.88;;;1.34;57.08
71126;BME280;58785;55.566;38.058;2023-02-17T12:52:38;100974.63;;;1.40;57.29
71126;BME280;58785;55.566;38.058;2023-02-17T13:00:21;100977.88;;;1.26;57.37
71126;BME280;58785;55.566;38.058;2023-02-17T13:02:48;100980.75;;;1.20;57.42
71126;BME280;58785;55.566;38.058;2023-02-17T13:05:33;100976.63;;;1.14;57.89
71126;BME280;58785;55.566;38.058;2023-02-17T13:10:38;100970.06;;;1.04;58.27
71126;BME280;58785;55.566;38.058;2023-02-17T13:15:45;100966.78;;;0.99;58.14
71126;BME280;58785;55.566;38.058;2023-02-17T13:18:28;100962.38;;;1.00;58.06
71126;BME280;58785;55.566;38.058;2023-02-17T13:23:40;100960.97;;;0.93;58.50
71126;BME280;58785;55.566;38.058;2023-02-17T13:26:25;100959.38;;;0.89;58.32
71126;BME280;58785;55.566;38.058;2023-02-17T13:28:54;100957.66;;;0.88;58.49
71126;BME280;58785;55.566;38.058;2023-02-17T13:31:30;100956.22;;;0.80;58.41
71126;BME280;58785;55.566;38.058;2023-02-17T13:33:58;100957.09;;;0.81;59.04
71126;BME280;58785;55.566;38.058;2023-02-17T13:41:47;100949.84;;;0.66;58.73
71126;BME280;58785;55.566;38.058;2023-02-17T13:46:52;100959.56;;;0.64;58.91
71126;BME280;58785;55.566;38.058;2023-02-17T13:49:23;100956.19;;;0.60;58.93
71126;BME280;58785;55.566;38.058;2023-02-17T13:51:49;100948.50;;;0.55;58.88
71126;BME280;58785;55.566;38.058;2023-02-17T13:54:19;100955.66;;;0.52;59.00
71126;BME280;58785;55.566;38.058;2023-02-17T13:56:50;100938.53;;;0.43;59.25
71126;BME280;58785;55.566;38.058;2023-02-17T13:59:17;100947.13;;;0.47;59.21
71126;BME280;58785;55.566;38.058;2023-02-17T14:01:48;100946.34;;;0.45;59.18
71126;BME280;58785;55.566;38.058;2023-02-17T14:06:46;100947.69;;;0.33;59.34
71126;BME280;58785;55.566;38.058;2023-02-17T14:09:33;100940.19;;;0.24;59.65
71126;BME280;58785;55.566;38.058;2023-02-17T14:12:05;100930.06;;;0.15;59.82
71126;BME280;58785;55.566;38.058;2023-02-17T14:14:34;100946.44;;;0.20;59.82
71126;BME280;58785;55.566;38.058;2023-02-17T14:19:26;100935.00;;;0.01;60.09
71126;BME280;58785;55.566;38.058;2023-02-17T14:24:34;100949.19;;;-0.05;60.04
71126;BME280;58785;55.566;38.058;2023-02-17T14:27:04;100946.66;;;-0.07;60.09
71126;BME280;58785;55.566;38.058;2023-02-17T14:29:42;100946.72;;;-0.08;60.09
71126;BME280;58785;55.566;38.058;2023-02-17T14:32:32;100946.78;;;-0.10;59.99
71126;BME280;58785;55.566;38.058;2023-02-17T14:37:42;100929.72;;;-0.21;59.96
71126;BME280;58785;55.566;38.058;2023-02-17T14:40:19;100921.94;;;-0.23;60.14
71126;BME280;58785;55.566;38.058;2023-02-17T14:42:45;100941.81;;;-0.17;60.08
71126;BME280;58785;55.566;38.058;2023-02-17T14:45:11;100931.63;;;-0.25;60.03